createdAt,value
2023-03-07T00:01:07.966Z,7.50
2023-03-07T00:03:37.064Z,7.16
2023-03-07T00:06:07.556Z,7.15
2023-03-07T00:08:35.790Z,6.51
2023-03-07T00:11:05.506Z,6.55
2023-03-07T00:13:34.824Z,6.33
2023-03-07T00:16:02.993Z,5.96
2023-03-07T00:18:31.190Z,5.47
2023-03-07T00:21:02.141Z,5.28
2023-03-07T00:23:29.698Z,5.03
2023-03-07T00:26:02.076Z,4.95
2023-03-07T00:28:30.301Z,5.26
2023-03-07T00:31:01.042Z,5.19
2023-03-07T00:33:28.781Z,5.26
2023-03-07T00:35:58.226Z,5.09
2023-03-07T00:38:29.291Z,5.04
2023-03-07T00:41:01.558Z,5.14
2023-03-07T00:43:30.091Z,5.07
2023-03-07T00:45:58.455Z,4.89
2023-03-07T00:48:27.109Z,4.81
2023-03-07T00:50:55.259Z,4.85
2023-03-07T00:53:23.194Z,4.90
2023-03-07T00:55:57.544Z,4.93
2023-03-07T00:58:26.244Z,5.00
2023-03-07T01:00:53.926Z,5.34
2023-03-07T01:03:23.601Z,5.28
2023-03-07T01:05:52.627Z,5.25
2023-03-07T01:08:21.725Z,5.84
2023-03-07T01:10:50.088Z,5.64
2023-03-07T01:13:19.428Z,5.56
2023-03-07T01:15:46.940Z,5.43
2023-03-07T01:18:14.514Z,5.36
2023-03-07T01:20:42.041Z,5.34
2023-03-07T01:23:09.774Z,5.44
2023-03-07T01:25:38.119Z,5.37
2023-03-07T01:28:06.362Z,4.95
2023-03-07T01:30:35.312Z,4.96
2023-03-07T01:33:03.737Z,5.07
2023-03-07T01:35:37.011Z,4.89
2023-03-07T01:38:05.333Z,4.83
2023-03-07T01:40:33.155Z,4.64
2023-03-07T01:43:22.359Z,4.76
2023-03-07T01:46:41.997Z,4.83
2023-03-07T01:49:21.082Z,4.68
2023-03-07T01:51:54.896Z,4.88
2023-03-07T01:54:24.035Z,4.82
2023-03-07T01:56:52.839Z,4.82
2023-03-07T01:59:29.052Z,4.84
2023-03-07T02:02:05.346Z,4.91
2023-03-07T02:04:42.483Z,4.90
2023-03-07T02:07:10.999Z,4.81
2023-03-07T02:09:39.141Z,4.91
2023-03-07T02:12:07.948Z,4.88
2023-03-07T02:14:35.755Z,4.84
2023-03-07T02:17:04.918Z,4.84
2023-03-07T02:19:53.956Z,4.94
2023-03-07T02:22:21.695Z,4.85
2023-03-07T02:24:55.938Z,4.78
2023-03-07T02:27:26.273Z,4.76
2023-03-07T02:29:53.950Z,4.77
2023-03-07T02:32:21.657Z,4.49
2023-03-07T02:34:49.346Z,4.55
2023-03-07T02:37:21.949Z,4.60
2023-03-07T02:39:49.610Z,4.77
2023-03-07T02:42:22.620Z,4.69
2023-03-07T02:44:58.185Z,4.67
2023-03-07T02:47:26.698Z,4.75
2023-03-07T02:49:54.334Z,4.59
2023-03-07T02:52:23.200Z,4.58
2023-03-07T02:54:50.878Z,4.52
2023-03-07T02:57:18.515Z,4.37
2023-03-07T02:59:46.141Z,4.44
2023-03-07T03:02:15.232Z,4.78
2023-03-07T03:04:42.973Z,4.60
2023-03-07T03:07:10.659Z,4.22
2023-03-07T03:09:38.333Z,3.87
2023-03-07T03:12:06.645Z,4.04
2023-03-07T03:14:34.437Z,4.08
2023-03-07T03:17:02.012Z,4.18
2023-03-07T03:19:30.978Z,4.20
2023-03-07T03:21:58.622Z,4.32
2023-03-07T03:24:26.279Z,4.35
2023-03-07T03:26:55.740Z,4.55
2023-03-07T03:29:23.702Z,4.60
2023-03-07T03:31:51.313Z,4.30
2023-03-07T03:34:18.891Z,4.33
2023-03-07T03:36:47.900Z,4.22
2023-03-07T03:39:15.448Z,4.34
2023-03-07T03:41:43.006Z,4.30
2023-03-07T03:44:10.529Z,4.21
2023-03-07T03:46:38.082Z,4.04
2023-03-07T03:49:05.651Z,4.25
2023-03-07T03:51:33.161Z,4.18
2023-03-07T03:54:02.029Z,4.20
2023-03-07T03:56:29.562Z,4.10
2023-03-07T03:58:57.498Z,3.98
2023-03-07T04:01:27.242Z,3.85
2023-03-07T04:03:55.271Z,3.97
2023-03-07T04:06:25.271Z,3.96
2023-03-07T04:08:53.901Z,3.95
2023-03-07T04:11:24.192Z,4.10
2023-03-07T04:13:52.686Z,4.01
2023-03-07T04:16:20.586Z,3.98
2023-03-07T04:18:48.579Z,3.95
2023-03-07T04:21:16.177Z,3.96
2023-03-07T04:23:44.027Z,4.04
2023-03-07T04:26:12.368Z,4.07
2023-03-07T04:28:43.257Z,4.01
2023-03-07T04:31:12.092Z,4.84
2023-03-07T04:33:39.881Z,5.06
2023-03-07T04:36:08.166Z,5.77
2023-03-07T04:38:36.306Z,5.75
2023-03-07T04:41:04.127Z,4.33
2023-03-07T04:43:31.668Z,4.26
2023-03-07T04:46:01.114Z,4.36
2023-03-07T04:48:28.861Z,4.40
2023-03-07T04:50:57.102Z,4.41
2023-03-07T04:53:24.745Z,5.33
2023-03-07T04:55:57.695Z,5.48
2023-03-07T04:58:25.646Z,4.99
2023-03-07T05:00:53.390Z,5.15
2023-03-07T05:03:23.582Z,4.99
2023-03-07T05:05:51.245Z,5.32
2023-03-07T05:08:19.557Z,5.58
2023-03-07T05:10:47.320Z,5.64
2023-03-07T05:13:14.926Z,5.44
2023-03-07T05:15:42.863Z,4.83
2023-03-07T05:18:10.491Z,4.89
2023-03-07T05:20:39.461Z,4.73
2023-03-07T05:23:07.095Z,4.79
2023-03-07T05:25:34.782Z,4.64
2023-03-07T05:28:02.439Z,4.55
2023-03-07T05:30:30.130Z,4.64
2023-03-07T05:32:57.912Z,4.93
2023-03-07T05:35:25.943Z,4.78
2023-03-07T05:37:55.058Z,4.48
2023-03-07T05:40:22.676Z,4.73
2023-03-07T05:42:50.311Z,4.66
2023-03-07T05:45:17.981Z,4.60
2023-03-07T05:47:45.518Z,4.66
2023-03-07T05:50:13.145Z,4.59
2023-03-07T05:52:40.828Z,4.53
2023-03-07T05:55:10.577Z,4.18
2023-03-07T05:57:38.176Z,4.35
2023-03-07T06:00:06.731Z,4.30
2023-03-07T06:02:34.469Z,4.51
2023-03-07T06:05:04.584Z,4.60
2023-03-07T06:07:32.205Z,4.65
2023-03-07T06:09:59.873Z,4.96
2023-03-07T06:12:28.827Z,4.76
2023-03-07T06:14:56.532Z,4.51
2023-03-07T06:17:24.252Z,4.22
2023-03-07T06:19:51.922Z,4.32
2023-03-07T06:22:20.609Z,4.43
2023-03-07T06:24:48.352Z,4.50
2023-03-07T06:27:17.049Z,4.57
2023-03-07T06:29:46.211Z,4.41
2023-03-07T06:32:14.077Z,4.33
2023-03-07T06:34:41.952Z,4.18
2023-03-07T06:37:09.914Z,4.09
2023-03-07T06:39:37.666Z,4.13
2023-03-07T06:42:07.623Z,4.04
2023-03-07T06:44:35.499Z,3.99
2023-03-07T06:47:04.538Z,4.01
2023-03-07T06:49:32.295Z,4.04
2023-03-07T06:51:59.957Z,4.11
2023-03-07T06:54:27.592Z,4.07
2023-03-07T06:56:56.166Z,4.15
2023-03-07T06:59:23.771Z,4.28
2023-03-07T07:01:51.449Z,4.43
2023-03-07T07:04:20.456Z,4.52
2023-03-07T07:06:48.067Z,4.47
2023-03-07T07:09:15.882Z,4.23
2023-03-07T07:11:43.435Z,4.43
2023-03-07T07:14:10.957Z,5.21
2023-03-07T07:16:38.540Z,4.76
2023-03-07T07:19:06.205Z,4.60
2023-03-07T07:21:35.121Z,5.02
2023-03-07T07:24:02.670Z,5.78
2023-03-07T07:26:30.315Z,6.09
2023-03-07T07:28:57.874Z,5.87
2023-03-07T07:31:25.574Z,5.66
2023-03-07T07:33:53.289Z,6.26
2023-03-07T07:36:22.834Z,6.86
2023-03-07T07:39:24.117Z,7.91
2023-03-07T07:42:11.876Z,9.55
2023-03-07T07:45:14.543Z,9.69
2023-03-07T07:47:42.228Z,9.39
2023-03-07T07:50:10.429Z,8.27
2023-03-07T07:52:38.098Z,8.98
2023-03-07T07:55:07.944Z,7.89
2023-03-07T07:57:35.596Z,8.81
2023-03-07T08:00:03.956Z,10.21
2023-03-07T08:02:31.726Z,10.74
2023-03-07T08:04:59.389Z,10.66
2023-03-07T08:07:27.310Z,8.65
2023-03-07T08:09:55.042Z,8.53
2023-03-07T08:12:25.193Z,9.31
2023-03-07T08:14:54.051Z,9.80
2023-03-07T08:17:24.224Z,10.93
2023-03-07T08:19:51.859Z,8.61
2023-03-07T08:22:19.637Z,9.24
2023-03-07T08:24:47.519Z,10.17
2023-03-07T08:27:15.136Z,10.56
2023-03-07T08:29:48.264Z,8.94
2023-03-07T08:32:16.319Z,11.32
2023-03-07T08:34:44.224Z,9.74
2023-03-07T08:37:11.846Z,9.06
2023-03-07T08:39:39.470Z,9.02
2023-03-07T08:42:08.303Z,10.16
2023-03-07T08:44:36.058Z,11.50
2023-03-07T08:47:05.148Z,9.88
2023-03-07T08:49:32.829Z,9.84
2023-03-07T08:52:00.693Z,10.17
2023-03-07T08:54:28.431Z,10.44
2023-03-07T08:56:56.044Z,10.20
2023-03-07T08:59:23.675Z,10.93
2023-03-07T09:01:51.305Z,11.78
2023-03-07T09:04:20.364Z,11.62
2023-03-07T09:06:48.194Z,12.85
2023-03-07T09:09:15.779Z,11.45
2023-03-07T09:11:43.484Z,10.21
2023-03-07T09:14:11.085Z,10.36
2023-03-07T09:16:39.159Z,9.32
2023-03-07T09:19:06.927Z,7.86
2023-03-07T09:21:35.854Z,8.33
2023-03-07T09:24:04.015Z,9.77
2023-03-07T09:26:31.606Z,8.65
2023-03-07T09:29:00.819Z,8.99
2023-03-07T09:31:28.769Z,10.29
2023-03-07T09:33:57.279Z,9.90
2023-03-07T09:36:24.815Z,9.81
2023-03-07T09:38:53.761Z,8.91
2023-03-07T09:41:46.520Z,9.39
2023-03-07T09:44:28.849Z,8.25
2023-03-07T09:47:15.797Z,7.70
2023-03-07T09:49:47.943Z,9.97
2023-03-07T09:52:19.462Z,8.21
2023-03-07T09:54:55.728Z,10.63
2023-03-07T09:57:28.661Z,8.97
2023-03-07T10:00:05.878Z,8.95
2023-03-07T10:02:42.494Z,9.26
2023-03-07T10:05:27.039Z,8.41
2023-03-07T10:07:55.200Z,10.93
2023-03-07T10:10:33.058Z,11.33
2023-03-07T10:13:13.743Z,10.28
2023-03-07T10:15:47.445Z,10.02
2023-03-07T10:18:34.409Z,8.52
2023-03-07T10:21:12.616Z,11.61
2023-03-07T10:24:10.613Z,10.91
2023-03-07T10:26:48.680Z,8.68
2023-03-07T10:29:19.637Z,8.73
2023-03-07T10:31:52.106Z,11.98
2023-03-07T10:34:27.402Z,12.78
2023-03-07T10:37:08.825Z,12.72
2023-03-07T10:39:45.028Z,11.99
2023-03-07T10:42:18.544Z,11.51
2023-03-07T10:44:47.059Z,12.20
2023-03-07T10:47:21.420Z,11.55
2023-03-07T10:49:54.214Z,11.87
2023-03-07T10:52:32.221Z,11.83
2023-03-07T10:55:39.476Z,10.79
2023-03-07T10:58:20.723Z,9.11
2023-03-07T11:01:00.545Z,8.58
2023-03-07T11:03:46.030Z,8.95
2023-03-07T11:06:31.692Z,7.62
2023-03-07T11:09:10.210Z,9.68
2023-03-07T11:11:38.229Z,9.55
2023-03-07T11:14:10.025Z,9.80
2023-03-07T11:16:41.773Z,8.72
2023-03-07T11:19:31.467Z,9.73
2023-03-07T11:22:01.143Z,10.44
2023-03-07T11:24:31.898Z,9.23
2023-03-07T11:27:00.182Z,9.60
2023-03-07T11:29:29.632Z,10.86
2023-03-07T11:32:08.877Z,9.85
2023-03-07T11:34:46.113Z,9.11
2023-03-07T11:37:33.494Z,8.36
2023-03-07T11:40:21.961Z,10.06
2023-03-07T11:43:02.038Z,10.04
2023-03-07T11:45:41.099Z,7.82
2023-03-07T11:48:26.657Z,8.19
2023-03-07T11:50:56.235Z,9.27
2023-03-07T11:53:48.203Z,9.18
2023-03-07T11:56:24.701Z,9.65
2023-03-07T11:59:18.900Z,10.20
2023-03-07T12:01:54.150Z,9.86
2023-03-07T12:04:44.809Z,10.01
2023-03-07T12:07:38.066Z,11.03
2023-03-07T12:10:26.416Z,11.85
2023-03-07T12:13:10.412Z,11.42
2023-03-07T12:15:47.481Z,11.77
2023-03-07T12:18:40.998Z,12.26
2023-03-07T12:21:27.105Z,10.94
2023-03-07T12:23:59.824Z,12.07
2023-03-07T12:26:37.591Z,12.56
2023-03-07T12:29:17.871Z,12.36
2023-03-07T12:31:51.269Z,12.38
2023-03-07T12:34:31.544Z,12.36
2023-03-07T12:37:06.940Z,12.48
2023-03-07T12:39:47.635Z,11.76
2023-03-07T12:42:30.187Z,12.07
2023-03-07T12:45:03.363Z,12.96
2023-03-07T12:47:43.336Z,12.77
2023-03-07T12:50:19.243Z,13.07
2023-03-07T12:52:54.051Z,13.97
2023-03-07T12:55:26.646Z,13.70
2023-03-07T12:58:03.994Z,13.65
2023-03-07T13:00:40.023Z,13.52
2023-03-07T13:03:19.134Z,13.41
2023-03-07T13:05:49.558Z,13.11
2023-03-07T13:08:23.663Z,13.74
2023-03-07T13:10:51.479Z,14.17
2023-03-07T13:13:51.717Z,14.33
2023-03-07T13:16:40.494Z,13.02
2023-03-07T13:19:43.142Z,12.75
2023-03-07T13:22:48.016Z,13.45
2023-03-07T13:25:49.404Z,13.04
2023-03-07T13:28:36.322Z,12.83
2023-03-07T13:31:41.989Z,12.02
2023-03-07T13:34:44.277Z,11.23
2023-03-07T13:37:48.316Z,11.36
2023-03-07T13:40:54.277Z,11.45
2023-03-07T13:43:56.607Z,11.05
2023-03-07T13:46:44.140Z,11.23
2023-03-07T13:49:12.052Z,11.05
2023-03-07T13:52:00.810Z,10.97
2023-03-07T13:54:29.342Z,10.87
2023-03-07T13:56:58.472Z,10.66
2023-03-07T13:59:26.670Z,10.68
2023-03-07T14:01:59.068Z,10.51
2023-03-07T14:04:40.399Z,10.35
2023-03-07T14:07:15.421Z,10.16
2023-03-07T14:09:47.754Z,10.16
2023-03-07T14:12:30.044Z,10.16
2023-03-07T14:15:17.139Z,9.90
2023-03-07T14:18:01.895Z,9.98
2023-03-07T14:20:55.118Z,9.89
2023-03-07T14:24:10.121Z,9.81
2023-03-07T14:26:44.226Z,9.87
2023-03-07T14:29:18.477Z,9.96
2023-03-07T14:31:47.876Z,9.82
2023-03-07T14:34:17.844Z,9.88
2023-03-07T14:36:51.840Z,9.75
2023-03-07T14:39:21.297Z,9.88
2023-03-07T14:42:05.244Z,9.74
2023-03-07T14:44:59.308Z,9.84
2023-03-07T14:47:55.450Z,9.86
2023-03-07T14:50:27.770Z,9.79
2023-03-07T14:53:02.228Z,9.76
2023-03-07T14:55:38.805Z,9.77
2023-03-07T14:58:07.329Z,9.77
2023-03-07T15:00:36.265Z,9.68
2023-03-07T15:03:05.812Z,9.61
2023-03-07T15:05:35.788Z,9.75
2023-03-07T15:08:03.872Z,9.60
2023-03-07T15:10:40.072Z,9.54
2023-03-07T15:13:18.886Z,9.56
2023-03-07T15:15:54.460Z,9.45
2023-03-07T15:18:29.407Z,9.40
2023-03-07T15:21:00.155Z,9.30
2023-03-07T15:23:29.089Z,9.33
2023-03-07T15:26:01.481Z,9.28
2023-03-07T15:28:33.800Z,9.32
2023-03-07T15:31:03.374Z,9.25
2023-03-07T15:33:32.978Z,9.22
2023-03-07T15:36:25.015Z,9.02
2023-03-07T15:39:12.649Z,9.03
2023-03-07T15:41:40.238Z,9.00
2023-03-07T15:44:25.418Z,9.01
2023-03-07T15:46:57.424Z,8.69
2023-03-07T15:49:34.889Z,8.46
2023-03-07T15:52:03.868Z,8.18
2023-03-07T15:54:36.428Z,7.86
2023-03-07T15:57:07.263Z,7.63
2023-03-07T15:59:40.164Z,7.46
2023-03-07T16:02:42.221Z,7.25
2023-03-07T16:05:37.169Z,7.22
2023-03-07T16:08:13.484Z,7.24
2023-03-07T16:10:48.147Z,7.22
2023-03-07T16:13:19.795Z,7.17
2023-03-07T16:15:58.818Z,7.31
2023-03-07T16:18:29.884Z,7.17
2023-03-07T16:20:57.876Z,7.17
2023-03-07T16:23:25.754Z,7.16
2023-03-07T16:25:53.482Z,6.98
2023-03-07T16:28:21.098Z,6.87
2023-03-07T16:30:48.961Z,6.86
2023-03-07T16:33:16.595Z,6.90
2023-03-07T16:35:45.583Z,6.72
2023-03-07T16:38:13.709Z,6.63
2023-03-07T16:40:43.971Z,6.60
2023-03-07T16:43:31.160Z,6.56
2023-03-07T16:45:59.151Z,6.51
2023-03-07T16:48:26.871Z,6.45
2023-03-07T16:50:56.185Z,6.43
2023-03-07T16:53:23.904Z,6.62
2023-03-07T16:55:53.434Z,6.63
2023-03-07T16:58:25.130Z,6.57
2023-03-07T17:00:53.900Z,6.47
2023-03-07T17:03:22.195Z,6.60
2023-03-07T17:05:49.736Z,6.64
2023-03-07T17:08:18.671Z,6.33
2023-03-07T17:10:46.652Z,6.57
2023-03-07T17:13:17.894Z,6.44
2023-03-07T17:15:45.607Z,6.55
2023-03-07T17:18:13.755Z,6.65
2023-03-07T17:20:41.911Z,6.65
2023-03-07T17:23:09.461Z,6.46
2023-03-07T17:25:39.041Z,6.36
2023-03-07T17:28:12.035Z,6.43
2023-03-07T17:30:39.688Z,6.44
2023-03-07T17:33:09.690Z,6.51
2023-03-07T17:35:37.743Z,6.50
2023-03-07T17:38:05.378Z,6.71
2023-03-07T17:40:33.055Z,6.72
2023-03-07T17:43:02.004Z,6.77
2023-03-07T17:45:29.611Z,6.88
2023-03-07T17:47:57.232Z,7.12
2023-03-07T17:50:24.934Z,7.14
2023-03-07T17:52:54.755Z,7.25
2023-03-07T17:55:23.248Z,7.30
2023-03-07T17:57:51.043Z,7.14
2023-03-07T18:00:21.377Z,7.39
2023-03-07T18:02:49.471Z,7.18
2023-03-07T18:05:18.502Z,7.08
2023-03-07T18:07:46.279Z,7.28
2023-03-07T18:10:13.850Z,7.47
2023-03-07T18:12:41.391Z,7.21
2023-03-07T18:15:13.516Z,7.32
2023-03-07T18:17:48.262Z,7.02
2023-03-07T18:20:18.234Z,7.01
2023-03-07T18:22:45.860Z,6.88
2023-03-07T18:25:17.405Z,7.10
2023-03-07T18:27:45.976Z,6.94
2023-03-07T18:30:14.521Z,6.93
2023-03-07T18:32:43.647Z,7.06
2023-03-07T18:35:13.653Z,6.93
2023-03-07T18:37:43.530Z,7.16
2023-03-07T18:40:14.054Z,7.16
2023-03-07T18:42:41.797Z,7.22
2023-03-07T18:45:10.690Z,7.12
2023-03-07T18:47:38.303Z,6.98
2023-03-07T18:50:09.304Z,6.92
2023-03-07T18:52:36.950Z,6.81
2023-03-07T18:55:05.352Z,6.71
2023-03-07T18:57:33.206Z,6.81
2023-03-07T19:00:00.813Z,6.73
2023-03-07T19:02:28.538Z,6.69
2023-03-07T19:04:56.255Z,6.66
2023-03-07T19:07:25.204Z,6.78
2023-03-07T19:09:52.818Z,6.85
2023-03-07T19:12:20.485Z,6.86
2023-03-07T19:14:50.810Z,6.80
2023-03-07T19:17:21.865Z,6.78
2023-03-07T19:19:49.553Z,6.80
2023-03-07T19:22:17.233Z,6.88
2023-03-07T19:24:50.921Z,6.72
2023-03-07T19:27:18.548Z,6.68
2023-03-07T19:29:46.132Z,6.75
2023-03-07T19:32:14.236Z,6.74
2023-03-07T19:34:42.092Z,6.76
2023-03-07T19:37:09.650Z,6.95
2023-03-07T19:39:37.229Z,6.99
2023-03-07T19:42:06.250Z,6.86
2023-03-07T19:44:33.758Z,6.81
2023-03-07T19:47:01.364Z,6.78
2023-03-07T19:49:28.986Z,7.03
2023-03-07T19:51:56.710Z,6.97
2023-03-07T19:54:24.336Z,7.05
2023-03-07T19:56:52.215Z,7.11
2023-03-07T19:59:22.580Z,7.25
2023-03-07T20:01:50.214Z,6.99
2023-03-07T20:04:19.755Z,6.95
2023-03-07T20:06:47.735Z,7.01
2023-03-07T20:09:15.541Z,7.07
2023-03-07T20:11:43.164Z,7.10
2023-03-07T20:14:18.879Z,7.04
2023-03-07T20:16:48.419Z,7.34
2023-03-07T20:19:16.076Z,7.28
2023-03-07T20:21:46.152Z,7.08
2023-03-07T20:24:19.214Z,6.98
2023-03-07T20:26:46.882Z,6.86
2023-03-07T20:29:17.367Z,6.76
2023-03-07T20:31:45.387Z,6.66
2023-03-07T20:34:24.247Z,6.66
2023-03-07T20:36:53.183Z,6.64
2023-03-07T20:39:30.135Z,6.69
2023-03-07T20:41:58.204Z,6.73
2023-03-07T20:44:28.150Z,6.67
2023-03-07T20:47:03.250Z,6.69
2023-03-07T20:49:35.055Z,6.63
2023-03-07T20:52:05.763Z,6.73
2023-03-07T20:54:33.769Z,6.66
2023-03-07T20:57:01.415Z,6.80
2023-03-07T20:59:29.102Z,6.83
2023-03-07T21:01:56.769Z,6.82
2023-03-07T21:04:24.631Z,6.71
2023-03-07T21:06:54.231Z,6.84
2023-03-07T21:09:21.853Z,6.84
2023-03-07T21:11:49.947Z,6.71
2023-03-07T21:14:19.491Z,6.68
2023-03-07T21:16:47.326Z,6.75
2023-03-07T21:19:14.892Z,6.73
2023-03-07T21:21:44.519Z,6.82
2023-03-07T21:24:13.542Z,6.68
2023-03-07T21:26:41.309Z,6.65
2023-03-07T21:29:09.010Z,6.67
2023-03-07T21:31:37.894Z,6.78
2023-03-07T21:34:08.126Z,6.87
2023-03-07T21:36:35.757Z,7.02
2023-03-07T21:39:04.729Z,7.04
2023-03-07T21:41:34.325Z,6.99
2023-03-07T21:44:02.505Z,7.24
2023-03-07T21:46:30.099Z,7.22
2023-03-07T21:48:58.961Z,6.97
2023-03-07T21:51:26.726Z,6.70
2023-03-07T21:53:54.363Z,6.93
2023-03-07T21:56:23.711Z,6.88
2023-03-07T21:58:52.889Z,7.01
2023-03-07T22:01:24.594Z,6.78
2023-03-07T22:03:53.054Z,7.01
2023-03-07T22:06:21.454Z,6.84
2023-03-07T22:08:48.986Z,6.56
2023-03-07T22:11:16.601Z,6.46
2023-03-07T22:13:44.182Z,6.40
2023-03-07T22:16:16.132Z,6.44
2023-03-07T22:18:43.684Z,6.57
2023-03-07T22:21:13.548Z,6.68
2023-03-07T22:23:42.127Z,6.65
2023-03-07T22:26:11.694Z,6.59
2023-03-07T22:28:39.663Z,6.49
2023-03-07T22:31:09.883Z,6.35
2023-03-07T22:33:39.850Z,6.38
2023-03-07T22:36:11.530Z,6.33
2023-03-07T22:38:39.601Z,6.40
2023-03-07T22:41:11.098Z,6.49
2023-03-07T22:43:39.609Z,6.58
2023-03-07T22:46:08.536Z,6.41
2023-03-07T22:48:36.325Z,6.54
2023-03-07T22:51:12.086Z,6.44
2023-03-07T22:53:39.703Z,6.40
2023-03-07T22:56:14.940Z,6.51
2023-03-07T22:58:42.564Z,6.46
2023-03-07T23:01:11.928Z,6.42
2023-03-07T23:03:39.780Z,6.33
2023-03-07T23:06:08.856Z,6.24
2023-03-07T23:08:36.392Z,6.19
2023-03-07T23:11:06.052Z,6.13
2023-03-07T23:13:34.111Z,6.17
2023-03-07T23:16:04.604Z,6.17
2023-03-07T23:18:32.295Z,6.17
2023-03-07T23:21:01.661Z,6.19
2023-03-07T23:23:30.760Z,6.31
2023-03-07T23:25:58.558Z,6.25
2023-03-07T23:28:26.228Z,6.35
2023-03-07T23:30:53.903Z,6.32
2023-03-07T23:33:21.543Z,6.36
2023-03-07T23:35:49.524Z,6.43
2023-03-07T23:38:17.184Z,6.36
2023-03-07T23:40:46.133Z,6.26
2023-03-07T23:43:13.694Z,6.42
2023-03-07T23:45:41.255Z,6.36
2023-03-07T23:48:10.893Z,6.52
2023-03-07T23:50:38.440Z,6.39
2023-03-07T23:53:05.997Z,6.49
2023-03-07T23:55:33.609Z,6.43
2023-03-07T23:58:02.608Z,6.42
